createdAt,value
2023-03-11T00:00:28.848Z,101716.00
2023-03-11T00:03:01.607Z,101698.00
2023-03-11T00:05:34.354Z,101739.69
2023-03-11T00:08:05.840Z,101717.94
2023-03-11T00:10:37.848Z,101735.59
2023-03-11T00:13:11.421Z,101728.56
2023-03-11T00:15:42.429Z,101727.31
2023-03-11T00:18:15.622Z,101737.56
2023-03-11T00:20:48.408Z,101727.84
2023-03-11T00:23:19.344Z,101740.13
2023-03-11T00:25:50.292Z,101740.31
2023-03-11T00:28:23.125Z,101747.28
2023-03-11T00:30:53.861Z,101755.06
2023-03-11T00:33:24.460Z,101739.06
2023-03-11T00:35:55.012Z,101755.94
2023-03-11T00:38:26.064Z,101749.56
2023-03-11T00:40:56.763Z,101760.19
2023-03-11T00:43:28.767Z,101768.38
2023-03-11T00:45:59.313Z,101768.31
2023-03-11T00:48:30.118Z,101766.69
2023-03-11T00:51:01.429Z,101762.44
2023-03-11T00:53:31.993Z,101759.91
2023-03-11T00:56:02.442Z,101756.31
2023-03-11T00:58:34.563Z,101765.09
2023-03-11T01:01:09.528Z,101764.25
2023-03-11T01:03:40.771Z,101758.31
2023-03-11T01:06:11.669Z,101772.94
2023-03-11T01:08:42.274Z,101763.91
2023-03-11T01:11:12.812Z,101762.84
2023-03-11T01:13:44.966Z,101656.41
2023-03-11T01:16:15.599Z,101759.13
2023-03-11T01:18:46.254Z,101752.84
2023-03-11T01:21:17.230Z,101761.84
2023-03-11T01:23:47.986Z,101763.44
2023-03-11T01:26:18.655Z,101765.41
2023-03-11T01:29:03.451Z,101737.69
2023-03-11T01:31:36.943Z,101759.03
2023-03-11T01:34:07.567Z,101767.06
2023-03-11T01:36:38.100Z,101750.69
2023-03-11T01:39:08.707Z,101763.19
2023-03-11T01:41:39.431Z,101762.06
2023-03-11T01:44:14.457Z,101763.81
2023-03-11T01:47:17.084Z,101762.06
2023-03-11T01:49:47.620Z,101769.63
2023-03-11T01:52:22.129Z,101761.72
2023-03-11T01:54:53.065Z,101760.19
2023-03-11T01:57:24.986Z,101769.94
2023-03-11T02:00:01.073Z,101764.38
2023-03-11T02:02:35.688Z,101761.03
2023-03-11T02:05:06.526Z,101770.34
2023-03-11T02:07:37.468Z,101772.09
2023-03-11T02:10:09.064Z,101758.28
2023-03-11T02:12:40.527Z,101760.75
2023-03-11T02:15:14.647Z,101755.09
2023-03-11T02:17:46.658Z,101760.13
2023-03-11T02:20:27.338Z,101773.41
2023-03-11T02:22:59.026Z,101768.97
2023-03-11T02:25:38.272Z,101773.56
2023-03-11T02:28:14.297Z,101784.84
2023-03-11T02:30:47.010Z,101773.78
2023-03-11T02:33:18.235Z,101773.56
2023-03-11T02:35:48.822Z,101766.25
2023-03-11T02:38:20.112Z,101759.47
2023-03-11T02:41:00.683Z,101763.69
2023-03-11T02:43:41.354Z,101763.81
2023-03-11T02:46:14.728Z,101768.31
2023-03-11T02:48:46.323Z,101734.28
2023-03-11T02:51:17.157Z,101766.19
2023-03-11T02:53:51.087Z,101765.84
2023-03-11T02:56:21.665Z,101762.13
2023-03-11T02:58:54.275Z,101755.19
2023-03-11T03:01:25.063Z,101762.09
2023-03-11T03:03:55.920Z,101755.69
2023-03-11T03:06:27.185Z,101760.91
2023-03-11T03:08:58.185Z,101762.72
2023-03-11T03:11:28.853Z,101704.16
2023-03-11T03:14:02.885Z,101749.13
2023-03-11T03:16:33.563Z,101747.72
2023-03-11T03:19:04.225Z,101707.47
2023-03-11T03:21:34.723Z,101757.56
2023-03-11T03:24:05.296Z,101767.38
2023-03-11T03:26:35.807Z,101770.94
2023-03-11T03:29:08.602Z,101775.94
2023-03-11T03:31:39.327Z,101764.28
2023-03-11T03:34:10.134Z,101770.06
2023-03-11T03:36:41.337Z,101753.19
2023-03-11T03:39:11.930Z,101764.59
2023-03-11T03:41:42.483Z,101762.66
2023-03-11T03:44:14.720Z,101765.88
2023-03-11T03:46:45.350Z,101761.88
2023-03-11T03:49:15.964Z,101775.41
2023-03-11T03:51:46.592Z,101777.88
2023-03-11T03:54:17.657Z,101770.69
2023-03-11T03:56:48.494Z,101775.41
2023-03-11T03:59:20.695Z,101788.06
2023-03-11T04:01:51.367Z,101785.44
2023-03-11T04:04:22.278Z,101792.50
2023-03-11T04:06:53.202Z,101736.75
2023-03-11T04:09:23.790Z,101789.91
2023-03-11T04:11:54.521Z,101780.78
2023-03-11T04:14:26.887Z,101787.41
2023-03-11T04:16:58.655Z,101779.31
2023-03-11T04:19:29.263Z,101777.13
2023-03-11T04:21:59.808Z,101780.06
2023-03-11T04:24:30.649Z,101778.88
2023-03-11T04:27:01.249Z,101781.50
2023-03-11T04:29:33.720Z,101771.66
2023-03-11T04:32:04.622Z,101765.94
2023-03-11T04:34:35.150Z,101779.91
2023-03-11T04:37:05.896Z,101781.09
2023-03-11T04:39:36.644Z,101754.94
2023-03-11T04:42:07.529Z,101786.84
2023-03-11T04:44:40.382Z,101767.88
2023-03-11T04:47:11.001Z,101772.84
2023-03-11T04:49:41.902Z,101782.69
2023-03-11T04:52:12.538Z,101746.38
2023-03-11T04:54:43.610Z,101779.03
2023-03-11T04:57:14.222Z,101777.44
2023-03-11T04:59:46.329Z,101783.56
2023-03-11T05:02:16.979Z,101783.69
2023-03-11T05:04:47.956Z,101778.69
2023-03-11T05:07:18.640Z,101786.78
2023-03-11T05:09:49.366Z,101781.25
2023-03-11T05:12:20.213Z,101778.13
2023-03-11T05:14:52.645Z,101783.13
2023-03-11T05:17:23.341Z,101780.69
2023-03-11T05:19:54.553Z,101683.22
2023-03-11T05:22:25.214Z,101784.88
2023-03-11T05:24:55.747Z,101770.28
2023-03-11T05:27:27.104Z,101757.00
2023-03-11T05:29:59.345Z,101779.78
2023-03-11T05:32:29.996Z,101732.34
2023-03-11T05:35:00.628Z,101786.50
2023-03-11T05:37:33.682Z,101760.31
2023-03-11T05:40:06.756Z,101748.69
2023-03-11T05:42:37.407Z,101800.19
2023-03-11T05:45:10.797Z,101807.13
2023-03-11T05:47:43.215Z,101814.03
2023-03-11T05:50:15.090Z,101769.94
2023-03-11T05:52:45.615Z,101799.91
2023-03-11T05:55:16.252Z,101805.06
2023-03-11T05:57:46.880Z,101810.47
2023-03-11T06:00:24.073Z,101816.84
2023-03-11T06:02:54.660Z,101806.59
2023-03-11T06:05:25.375Z,101820.38
2023-03-11T06:07:56.064Z,101807.56
2023-03-11T06:10:26.692Z,101819.31
2023-03-11T06:12:57.198Z,101821.53
2023-03-11T06:15:29.342Z,101815.44
2023-03-11T06:18:00.257Z,101816.97
2023-03-11T06:20:30.882Z,101801.97
2023-03-11T06:23:01.536Z,101809.16
2023-03-11T06:25:32.076Z,101800.09
2023-03-11T06:28:02.759Z,101796.34
2023-03-11T06:30:34.876Z,101806.56
2023-03-11T06:33:05.536Z,101799.94
2023-03-11T06:35:36.208Z,101802.69
2023-03-11T06:38:06.837Z,101754.69
2023-03-11T06:40:37.556Z,101802.03
2023-03-11T06:43:08.102Z,101798.50
2023-03-11T06:45:40.247Z,101794.66
2023-03-11T06:48:10.779Z,101797.53
2023-03-11T06:50:41.317Z,101807.34
2023-03-11T06:53:12.022Z,101812.16
2023-03-11T06:55:42.657Z,101824.19
2023-03-11T06:58:13.195Z,101830.78
2023-03-11T07:00:45.519Z,101767.03
2023-03-11T07:03:16.079Z,101832.53
2023-03-11T07:05:46.616Z,101831.19
2023-03-11T07:08:17.310Z,101828.75
2023-03-11T07:10:49.124Z,101820.81
2023-03-11T07:13:20.221Z,101814.22
2023-03-11T07:15:52.305Z,101827.88
2023-03-11T07:18:22.946Z,101832.00
2023-03-11T07:20:53.602Z,101833.00
2023-03-11T07:23:24.798Z,101819.50
2023-03-11T07:25:56.438Z,101832.50
2023-03-11T07:28:27.793Z,101835.19
2023-03-11T07:31:00.082Z,101835.03
2023-03-11T07:33:32.171Z,101836.47
2023-03-11T07:36:08.891Z,101839.81
2023-03-11T07:38:40.957Z,101818.13
2023-03-11T07:41:12.944Z,101837.22
2023-03-11T07:43:44.807Z,101842.66
2023-03-11T07:46:19.894Z,101840.91
2023-03-11T07:48:50.531Z,101849.75
2023-03-11T07:51:23.157Z,101848.88
2023-03-11T07:53:55.694Z,101786.84
2023-03-11T07:56:29.949Z,101864.28
2023-03-11T07:59:02.464Z,101860.22
2023-03-11T08:01:37.610Z,101863.94
2023-03-11T08:04:09.830Z,101879.50
2023-03-11T08:06:45.168Z,101847.78
2023-03-11T08:09:16.007Z,101862.19
2023-03-11T08:11:49.776Z,101887.13
2023-03-11T08:14:20.667Z,101888.00
2023-03-11T08:16:58.328Z,101877.91
2023-03-11T08:19:28.871Z,101882.31
2023-03-11T08:21:59.562Z,101884.28
2023-03-11T08:24:30.887Z,101877.03
2023-03-11T08:27:01.806Z,101876.31
2023-03-11T08:29:32.692Z,101871.03
2023-03-11T08:32:06.411Z,101874.91
2023-03-11T08:34:36.928Z,101872.97
2023-03-11T08:37:07.974Z,101872.78
2023-03-11T08:39:38.619Z,101865.50
2023-03-11T08:42:09.520Z,101871.34
2023-03-11T08:44:41.742Z,101869.22
2023-03-11T08:47:16.637Z,101872.59
2023-03-11T08:49:50.134Z,101867.31
2023-03-11T08:52:20.656Z,101871.56
2023-03-11T08:54:51.926Z,101877.91
2023-03-11T08:57:25.385Z,101890.13
2023-03-11T08:59:56.701Z,101881.28
2023-03-11T09:02:29.636Z,101880.81
2023-03-11T09:05:03.527Z,101869.06
2023-03-11T09:07:34.890Z,101878.09
2023-03-11T09:10:05.767Z,101881.19
2023-03-11T09:12:38.957Z,101877.03
2023-03-11T09:15:10.660Z,101873.31
2023-03-11T09:17:42.978Z,101885.69
2023-03-11T09:20:20.620Z,101835.84
2023-03-11T09:22:55.145Z,101884.44
2023-03-11T09:25:25.956Z,101873.66
2023-03-11T09:27:56.978Z,101882.69
2023-03-11T09:31:55.310Z,101871.00
2023-03-11T09:34:30.720Z,101873.28
2023-03-11T09:37:06.873Z,101879.22
2023-03-11T09:39:50.325Z,101874.00
2023-03-11T09:42:28.510Z,101876.63
2023-03-11T09:45:06.567Z,101888.69
2023-03-11T09:47:52.156Z,101880.19
2023-03-11T09:50:33.111Z,101885.50
2023-03-11T09:53:19.990Z,101887.88
2023-03-11T09:55:57.809Z,101885.16
2023-03-11T09:58:43.489Z,101846.25
2023-03-11T10:01:23.826Z,101892.41
2023-03-11T10:04:04.905Z,101821.94
2023-03-11T10:06:37.031Z,101867.44
2023-03-11T10:09:27.158Z,101882.47
2023-03-11T10:12:15.463Z,101896.38
2023-03-11T10:15:01.299Z,101896.28
2023-03-11T10:18:01.686Z,101893.72
2023-03-11T10:20:39.876Z,101906.53
2023-03-11T10:23:24.754Z,101908.31
2023-03-11T10:26:05.415Z,101901.06
2023-03-11T10:29:01.171Z,101904.41
2023-03-11T10:31:37.829Z,101892.22
2023-03-11T10:34:22.611Z,101848.56
2023-03-11T10:37:08.015Z,101910.97
2023-03-11T10:39:44.189Z,101907.44
2023-03-11T10:42:21.887Z,101908.31
2023-03-11T10:44:55.400Z,101887.59
2023-03-11T10:47:28.048Z,101892.41
2023-03-11T10:49:58.574Z,101904.94
2023-03-11T10:52:32.028Z,101896.97
2023-03-11T10:55:06.728Z,101905.78
2023-03-11T10:57:44.666Z,101897.13
2023-03-11T11:00:32.848Z,101872.03
2023-03-11T11:03:06.010Z,101900.34
2023-03-11T11:05:38.748Z,101900.34
2023-03-11T11:08:12.848Z,101911.09
2023-03-11T11:10:54.809Z,101912.00
2023-03-11T11:13:30.921Z,101917.50
2023-03-11T11:16:03.969Z,101917.31
2023-03-11T11:18:45.683Z,101913.78
2023-03-11T11:21:19.744Z,101843.41
2023-03-11T11:23:53.841Z,101892.19
2023-03-11T11:26:28.032Z,101864.97
2023-03-11T11:29:10.643Z,101881.03
2023-03-11T11:31:45.564Z,101886.00
2023-03-11T11:34:36.830Z,101880.53
2023-03-11T11:37:09.105Z,101859.44
2023-03-11T11:39:54.387Z,101861.69
2023-03-11T11:42:29.352Z,101855.28
2023-03-11T11:45:05.339Z,101855.47
2023-03-11T11:47:38.766Z,101855.63
2023-03-11T11:50:19.057Z,101846.97
2023-03-11T11:52:55.628Z,101846.97
2023-03-11T11:55:31.627Z,101815.34
2023-03-11T11:58:08.170Z,101845.69
2023-03-11T12:00:48.545Z,101832.06
2023-03-11T12:03:54.684Z,101823.69
2023-03-11T12:06:36.228Z,101837.72
2023-03-11T12:09:17.243Z,101835.25
2023-03-11T12:11:54.901Z,101828.69
2023-03-11T12:14:31.445Z,101745.19
2023-03-11T12:17:06.017Z,101838.63
2023-03-11T12:19:53.947Z,101853.38
2023-03-11T12:22:58.213Z,101862.88
2023-03-11T12:25:39.606Z,101866.38
2023-03-11T12:28:22.498Z,101883.44
2023-03-11T12:30:58.060Z,101884.66
2023-03-11T12:33:35.106Z,101897.19
2023-03-11T12:36:06.999Z,101898.00
2023-03-11T12:38:39.393Z,101888.34
2023-03-11T12:41:29.686Z,101895.25
2023-03-11T12:44:23.897Z,101911.78
2023-03-11T12:47:21.394Z,101910.56
2023-03-11T12:49:55.610Z,101826.59
2023-03-11T12:52:29.021Z,101924.00
2023-03-11T12:55:36.867Z,101920.81
2023-03-11T12:58:54.712Z,101915.69
2023-03-11T13:01:40.171Z,101919.19
2023-03-11T13:04:39.510Z,101918.25
2023-03-11T13:07:44.612Z,101918.16
2023-03-11T13:10:22.921Z,101920.63
2023-03-11T13:12:55.025Z,101921.16
2023-03-11T13:15:43.609Z,101934.97
2023-03-11T13:18:26.152Z,101928.13
2023-03-11T13:21:02.685Z,101906.69
2023-03-11T13:23:41.354Z,101950.56
2023-03-11T13:26:45.295Z,101941.72
2023-03-11T13:29:46.488Z,101934.56
2023-03-11T13:32:52.519Z,101958.53
2023-03-11T13:35:50.783Z,101955.16
2023-03-11T13:38:49.100Z,101938.72
2023-03-11T13:41:25.247Z,101935.19
2023-03-11T13:44:14.024Z,101932.78
2023-03-11T13:46:51.425Z,101944.66
2023-03-11T13:49:36.135Z,101936.59
2023-03-11T13:52:09.991Z,101913.78
2023-03-11T13:54:48.193Z,101932.53
2023-03-11T13:57:30.151Z,101930.59
2023-03-11T14:00:22.205Z,101955.72
2023-03-11T14:03:29.724Z,101960.13
2023-03-11T14:06:27.192Z,101904.25
2023-03-11T14:09:30.979Z,101971.22
2023-03-11T14:12:26.428Z,101967.50
2023-03-11T14:21:50.722Z,101939.13
2023-03-11T14:24:33.910Z,101933.41
2023-03-11T14:27:12.064Z,101935.84
2023-03-11T14:29:47.011Z,101912.88
2023-03-11T14:32:58.788Z,101921.38
2023-03-11T14:35:39.418Z,101908.31
2023-03-11T14:38:51.424Z,101904.34
2023-03-11T14:41:42.186Z,101907.78
2023-03-11T14:44:17.545Z,101892.22
2023-03-11T14:47:07.683Z,101900.25
2023-03-11T14:49:37.955Z,101912.34
2023-03-11T14:52:22.523Z,101901.13
2023-03-11T14:55:00.834Z,101913.94
2023-03-11T14:57:58.927Z,101890.81
2023-03-11T15:04:36.568Z,101907.50
2023-03-11T15:07:28.933Z,101907.38
2023-03-11T15:10:02.545Z,101890.22
2023-03-11T15:12:40.387Z,101850.00
2023-03-11T15:15:45.301Z,101876.78
2023-03-11T15:18:40.554Z,101861.56
2023-03-11T15:21:32.657Z,101909.50
2023-03-11T15:24:09.074Z,101895.63
2023-03-11T15:26:59.678Z,101895.88
2023-03-11T15:29:32.531Z,101897.03
2023-03-11T15:32:09.719Z,101911.78
2023-03-11T15:34:42.419Z,101892.66
2023-03-11T15:37:28.545Z,101901.69
2023-03-11T15:40:15.968Z,101872.13
2023-03-11T15:42:53.343Z,101874.53
2023-03-11T15:45:25.855Z,101878.63
2023-03-11T15:48:00.763Z,101884.66
2023-03-11T15:50:52.467Z,101892.50
2023-03-11T15:53:29.062Z,101902.78
2023-03-11T15:56:07.922Z,101910.75
2023-03-11T15:58:42.359Z,101916.56
2023-03-11T16:01:13.535Z,101907.16
2023-03-11T16:03:44.831Z,101909.31
2023-03-11T16:06:16.832Z,101924.00
2023-03-11T16:08:50.508Z,101899.41
2023-03-11T16:11:22.233Z,101911.97
2023-03-11T16:13:59.986Z,101903.13
2023-03-11T16:16:35.248Z,101913.56
2023-03-11T16:19:09.355Z,101911.28
2023-03-11T16:21:56.269Z,101921.03
2023-03-11T16:24:34.117Z,101908.03
2023-03-11T16:27:10.010Z,101893.06
2023-03-11T16:29:46.756Z,101895.53
2023-03-11T16:32:23.822Z,101883.66
2023-03-11T16:35:00.623Z,101883.84
2023-03-11T16:37:35.606Z,101871.97
2023-03-11T16:40:10.383Z,101875.50
2023-03-11T16:43:19.746Z,101872.47
2023-03-11T16:45:57.676Z,101875.41
2023-03-11T16:48:37.065Z,101877.66
2023-03-11T16:54:58.418Z,101886.66
2023-03-11T16:57:29.518Z,101878.53
2023-03-11T17:00:01.815Z,101881.53
2023-03-11T17:02:34.977Z,101889.53
2023-03-11T17:05:08.820Z,101877.53
2023-03-11T17:07:46.081Z,101877.34
2023-03-11T17:10:22.669Z,101866.56
2023-03-11T17:12:55.676Z,101842.25
2023-03-11T17:15:27.967Z,101866.91
2023-03-11T17:18:15.904Z,101835.72
2023-03-11T17:20:51.854Z,101869.84
2023-03-11T17:23:25.902Z,101868.84
2023-03-11T17:26:02.267Z,101846.22
2023-03-11T17:28:34.830Z,101875.72
2023-03-11T17:31:12.074Z,101860.56
2023-03-11T17:33:45.282Z,101863.47
2023-03-11T17:36:20.830Z,101870.38
2023-03-11T17:38:56.636Z,101871.50
2023-03-11T17:41:27.542Z,101865.56
2023-03-11T17:43:59.081Z,101858.66
2023-03-11T17:46:33.670Z,101863.66
2023-03-11T17:49:06.774Z,101872.31
2023-03-11T17:51:38.236Z,101860.28
2023-03-11T17:54:16.883Z,101860.44
2023-03-11T17:56:48.059Z,101854.25
2023-03-11T17:59:20.052Z,101883.06
2023-03-11T18:02:00.042Z,101876.34
2023-03-11T18:04:34.801Z,101875.53
2023-03-11T18:07:09.434Z,101870.50
2023-03-11T18:09:40.120Z,101865.75
2023-03-11T18:12:11.376Z,101868.50
2023-03-11T18:14:43.883Z,101866.00
2023-03-11T18:17:27.121Z,101865.28
2023-03-11T18:20:01.770Z,101857.34
2023-03-11T18:26:23.100Z,101856.31
2023-03-11T18:29:01.862Z,101854.50
2023-03-11T18:31:36.755Z,101836.53
2023-03-11T18:34:14.354Z,101868.50
2023-03-11T18:40:50.806Z,101868.84
2023-03-11T18:43:23.552Z,101851.16
2023-03-11T18:45:57.601Z,101840.69
2023-03-11T18:48:35.578Z,101820.97
2023-03-11T18:51:10.225Z,101828.22
2023-03-11T18:53:43.007Z,101834.16
2023-03-11T18:56:22.494Z,101833.66
2023-03-11T18:58:53.788Z,101828.38
2023-03-11T19:01:26.515Z,101828.13
2023-03-11T19:03:58.232Z,101817.31
2023-03-11T19:06:30.381Z,101807.75
2023-03-11T19:09:09.512Z,101837.34
2023-03-11T19:11:41.677Z,101829.63
2023-03-11T19:14:12.194Z,101827.78
2023-03-11T19:16:42.963Z,101833.13
2023-03-11T19:19:13.705Z,101834.78
2023-03-11T19:21:44.249Z,101831.28
2023-03-11T19:24:14.714Z,101836.41
2023-03-11T19:26:46.941Z,101822.50
2023-03-11T19:29:17.886Z,101844.91
2023-03-11T19:31:48.536Z,101839.91
2023-03-11T19:34:19.120Z,101845.06
2023-03-11T19:36:49.662Z,101851.97
2023-03-11T19:39:20.282Z,101851.97
2023-03-11T19:41:56.796Z,101851.97
2023-03-11T19:44:27.467Z,101875.34
2023-03-11T19:46:58.090Z,101883.94
2023-03-11T19:49:28.643Z,101877.81
2023-03-11T19:51:59.704Z,101875.88
2023-03-11T19:54:30.375Z,101884.41
2023-03-11T19:57:02.882Z,101889.53
2023-03-11T19:59:36.177Z,101889.53
2023-03-11T20:02:07.243Z,101877.31
2023-03-11T20:04:37.952Z,101878.75
2023-03-11T20:07:09.184Z,101815.34
2023-03-11T20:09:39.678Z,101883.28
2023-03-11T20:12:12.354Z,101887.59
2023-03-11T20:14:44.422Z,101896.28
2023-03-11T20:17:15.577Z,101894.53
2023-03-11T20:19:46.317Z,101890.97
2023-03-11T20:22:16.860Z,101895.25
2023-03-11T20:24:47.418Z,101899.31
2023-03-11T20:27:19.637Z,101897.41
2023-03-11T20:29:50.135Z,101891.44
2023-03-11T20:32:20.700Z,101893.84
2023-03-11T20:34:54.285Z,101887.66
2023-03-11T20:37:24.898Z,101901.66
2023-03-11T20:39:55.449Z,101903.56
2023-03-11T20:42:27.629Z,101895.97
2023-03-11T20:44:58.312Z,101896.13
2023-03-11T20:47:28.881Z,101902.84
2023-03-11T20:49:59.352Z,101923.66
2023-03-11T20:52:35.231Z,101901.09
2023-03-11T20:55:05.745Z,101912.97
2023-03-11T20:57:38.081Z,101923.25
2023-03-11T21:00:12.168Z,101909.59
2023-03-11T21:02:44.247Z,101904.13
2023-03-11T21:05:15.508Z,101904.13
2023-03-11T21:07:46.098Z,101918.09
2023-03-11T21:10:17.083Z,101926.63
2023-03-11T21:12:49.410Z,101929.81
2023-03-11T21:15:20.327Z,101928.03
2023-03-11T21:17:50.937Z,101914.25
2023-03-11T21:20:21.741Z,101914.41
2023-03-11T21:22:52.484Z,101914.56
2023-03-11T21:25:23.103Z,101921.47
2023-03-11T21:27:55.477Z,101937.06
2023-03-11T21:30:26.006Z,101931.25
2023-03-11T21:32:56.650Z,101929.19
2023-03-11T21:35:27.500Z,101924.41
2023-03-11T21:37:58.186Z,101918.78
2023-03-11T21:40:29.291Z,101921.69
2023-03-11T21:43:01.551Z,101904.47
2023-03-11T21:45:32.254Z,101899.34
2023-03-11T21:48:07.431Z,101893.50
2023-03-11T21:50:38.797Z,101876.72
2023-03-11T21:53:09.577Z,101905.63
2023-03-11T21:55:43.604Z,101903.94
2023-03-11T21:58:15.958Z,101902.25
2023-03-11T22:00:46.924Z,101899.53
2023-03-11T22:03:17.765Z,101908.22
2023-03-11T22:05:48.560Z,101918.06
2023-03-11T22:08:19.151Z,101909.88
2023-03-11T22:10:49.712Z,101897.28
2023-03-11T22:13:22.093Z,101894.66
2023-03-11T22:15:53.005Z,101892.56
2023-03-11T22:18:23.962Z,101881.94
2023-03-11T22:20:54.553Z,101882.69
2023-03-11T22:23:25.160Z,101882.84
2023-03-11T22:25:55.731Z,101882.69
2023-03-11T22:28:28.154Z,101899.91
2023-03-11T22:30:58.699Z,101893.53
2023-03-11T22:33:29.375Z,101885.88
2023-03-11T22:36:03.003Z,101871.69
2023-03-11T22:38:34.986Z,101872.25
2023-03-11T22:41:08.493Z,101872.00
2023-03-11T22:43:41.551Z,101866.31
2023-03-11T22:46:12.060Z,101866.91
2023-03-11T22:48:42.530Z,101861.06
2023-03-11T22:51:13.847Z,101858.22
2023-03-11T22:53:44.475Z,101843.44
2023-03-11T22:56:16.793Z,101779.19
2023-03-11T22:58:49.503Z,101846.97
2023-03-11T23:01:20.296Z,101845.22
2023-03-11T23:03:50.924Z,101857.41
2023-03-11T23:06:22.988Z,101840.34
2023-03-11T23:08:53.751Z,101845.34
2023-03-11T23:11:24.693Z,101853.88
2023-03-11T23:13:57.666Z,101856.09
2023-03-11T23:16:28.485Z,101866.81
2023-03-11T23:18:59.743Z,101866.66
2023-03-11T23:21:31.777Z,101870.22
2023-03-11T23:24:03.843Z,101871.16
2023-03-11T23:26:35.295Z,101879.16
2023-03-11T23:29:08.093Z,101788.59
2023-03-11T23:31:38.930Z,101871.56
2023-03-11T23:34:09.514Z,101866.97
2023-03-11T23:36:40.134Z,101870.56
2023-03-11T23:39:10.696Z,101868.22
2023-03-11T23:41:41.200Z,101869.19
2023-03-11T23:44:13.427Z,101876.13
2023-03-11T23:46:43.930Z,101848.28
2023-03-11T23:49:14.504Z,101867.91
2023-03-11T23:51:45.121Z,101867.31
2023-03-11T23:54:15.764Z,101882.06
2023-03-11T23:56:46.987Z,101868.63
2023-03-11T23:59:19.159Z,101891.44
